sensor_id;sensor_type;location;lat;lon;timestamp;P1;durP1;ratioP1;P2;durP2;ratioP2
27039;SDS011;14589;51.578;7.306;2022-12-04T00:01:21;57.20;;;20.05;;
27039;SDS011;14589;51.578;7.306;2022-12-04T00:03:52;58.70;;;19.52;;
27039;SDS011;14589;51.578;7.306;2022-12-04T00:08:48;52.45;;;18.10;;
27039;SDS011;14589;51.578;7.306;2022-12-04T00:11:16;54.25;;;19.25;;
27039;SDS011;14589;51.578;7.306;2022-12-04T00:13:44;49.85;;;18.20;;
27039;SDS011;14589;51.578;7.306;2022-12-04T00:16:12;46.63;;;17.60;;
27039;SDS011;14589;51.578;7.306;2022-12-04T00:18:40;54.47;;;19.60;;
27039;SDS011;14589;51.578;7.306;2022-12-04T00:21:06;50.10;;;18.55;;
27039;SDS011;14589;51.578;7.306;2022-12-04T00:23:33;54.72;;;17.90;;
27039;SDS011;14589;51.578;7.306;2022-12-04T00:26:06;52.53;;;18.98;;
27039;SDS011;14589;51.578;7.306;2022-12-04T00:28:34;50.33;;;18.52;;
27039;SDS011;14589;51.578;7.306;2022-12-04T00:31:12;53.63;;;18.80;;
27039;SDS011;14589;51.578;7.306;2022-12-04T00:33:40;47.50;;;19.50;;
27039;SDS011;14589;51.578;7.306;2022-12-04T00:36:09;53.20;;;18.27;;
27039;SDS011;14589;51.578;7.306;2022-12-04T00:38:36;51.58;;;16.67;;
27039;SDS011;14589;51.578;7.306;2022-12-04T00:41:02;50.88;;;18.40;;
27039;SDS011;14589;51.578;7.306;2022-12-04T00:43:29;49.42;;;18.65;;
27039;SDS011;14589;51.578;7.306;2022-12-04T00:45:55;53.72;;;18.60;;
27039;SDS011;14589;51.578;7.306;2022-12-04T00:48:21;50.15;;;18.38;;
27039;SDS011;14589;51.578;7.306;2022-12-04T00:50:47;46.90;;;17.75;;
27039;SDS011;14589;51.578;7.306;2022-12-04T00:53:12;53.00;;;19.10;;
27039;SDS011;14589;51.578;7.306;2022-12-04T00:55:38;49.65;;;17.58;;
27039;SDS011;14589;51.578;7.306;2022-12-04T00:58:10;47.60;;;17.88;;
27039;SDS011;14589;51.578;7.306;2022-12-04T01:00:36;44.03;;;17.15;;
27039;SDS011;14589;51.578;7.306;2022-12-04T01:03:03;45.30;;;17.23;;
27039;SDS011;14589;51.578;7.306;2022-12-04T01:05:29;49.38;;;18.08;;
27039;SDS011;14589;51.578;7.306;2022-12-04T01:07:58;48.58;;;17.55;;
27039;SDS011;14589;51.578;7.306;2022-12-04T01:10:23;42.67;;;17.60;;
27039;SDS011;14589;51.578;7.306;2022-12-04T01:12:53;49.15;;;17.15;;
27039;SDS011;14589;51.578;7.306;2022-12-04T01:15:18;49.25;;;17.48;;
27039;SDS011;14589;51.578;7.306;2022-12-04T01:17:44;52.78;;;17.52;;
27039;SDS011;14589;51.578;7.306;2022-12-04T01:20:10;50.20;;;17.63;;
27039;SDS011;14589;51.578;7.306;2022-12-04T01:22:37;42.22;;;16.67;;
27039;SDS011;14589;51.578;7.306;2022-12-04T01:25:03;49.22;;;17.95;;
27039;SDS011;14589;51.578;7.306;2022-12-04T01:27:28;45.65;;;18.42;;
27039;SDS011;14589;51.578;7.306;2022-12-04T01:29:54;47.83;;;17.75;;
27039;SDS011;14589;51.578;7.306;2022-12-04T01:32:19;48.55;;;17.42;;
27039;SDS011;14589;51.578;7.306;2022-12-04T01:34:44;50.17;;;18.05;;
27039;SDS011;14589;51.578;7.306;2022-12-04T01:37:10;45.38;;;17.73;;
27039;SDS011;14589;51.578;7.306;2022-12-04T01:39:35;48.40;;;18.20;;
27039;SDS011;14589;51.578;7.306;2022-12-04T01:42:09;46.97;;;16.90;;
27039;SDS011;14589;51.578;7.306;2022-12-04T01:44:37;51.88;;;18.65;;
27039;SDS011;14589;51.578;7.306;2022-12-04T01:47:07;46.83;;;18.27;;
27039;SDS011;14589;51.578;7.306;2022-12-04T01:49:43;48.17;;;17.30;;
27039;SDS011;14589;51.578;7.306;2022-12-04T01:54:47;44.78;;;17.08;;
27039;SDS011;14589;51.578;7.306;2022-12-04T01:57:16;45.25;;;17.85;;
27039;SDS011;14589;51.578;7.306;2022-12-04T02:02:28;44.55;;;16.67;;
27039;SDS011;14589;51.578;7.306;2022-12-04T02:04:56;46.85;;;16.38;;
27039;SDS011;14589;51.578;7.306;2022-12-04T02:07:21;43.85;;;16.50;;
27039;SDS011;14589;51.578;7.306;2022-12-04T02:09:47;41.20;;;15.63;;
27039;SDS011;14589;51.578;7.306;2022-12-04T02:15:11;45.00;;;16.38;;
27039;SDS011;14589;51.578;7.306;2022-12-04T02:17:48;50.10;;;17.55;;
27039;SDS011;14589;51.578;7.306;2022-12-04T02:20:56;46.53;;;17.20;;
27039;SDS011;14589;51.578;7.306;2022-12-04T02:23:35;41.38;;;15.77;;
27039;SDS011;14589;51.578;7.306;2022-12-04T02:31:18;44.15;;;15.38;;
27039;SDS011;14589;51.578;7.306;2022-12-04T02:33:48;46.53;;;16.40;;
27039;SDS011;14589;51.578;7.306;2022-12-04T02:36:23;49.58;;;17.33;;
27039;SDS011;14589;51.578;7.306;2022-12-04T02:38:53;39.97;;;15.15;;
27039;SDS011;14589;51.578;7.306;2022-12-04T02:41:24;41.58;;;15.73;;
27039;SDS011;14589;51.578;7.306;2022-12-04T02:44:00;39.78;;;15.93;;
27039;SDS011;14589;51.578;7.306;2022-12-04T02:46:36;47.72;;;16.55;;
27039;SDS011;14589;51.578;7.306;2022-12-04T02:49:05;39.78;;;16.23;;
27039;SDS011;14589;51.578;7.306;2022-12-04T02:51:34;41.75;;;15.50;;
27039;SDS011;14589;51.578;7.306;2022-12-04T02:54:03;41.55;;;15.60;;
27039;SDS011;14589;51.578;7.306;2022-12-04T02:56:33;38.33;;;15.70;;
27039;SDS011;14589;51.578;7.306;2022-12-04T02:59:25;42.97;;;16.58;;
27039;SDS011;14589;51.578;7.306;2022-12-04T03:01:51;43.50;;;16.35;;
27039;SDS011;14589;51.578;7.306;2022-12-04T03:04:19;41.45;;;15.93;;
27039;SDS011;14589;51.578;7.306;2022-12-04T03:06:51;39.85;;;15.15;;
27039;SDS011;14589;51.578;7.306;2022-12-04T03:14:47;36.20;;;14.45;;
27039;SDS011;14589;51.578;7.306;2022-12-04T03:17:20;37.90;;;14.20;;
27039;SDS011;14589;51.578;7.306;2022-12-04T03:19:51;40.97;;;14.52;;
27039;SDS011;14589;51.578;7.306;2022-12-04T03:22:20;32.25;;;12.85;;
27039;SDS011;14589;51.578;7.306;2022-12-04T03:24:49;39.88;;;14.48;;
27039;SDS011;14589;51.578;7.306;2022-12-04T03:27:53;34.95;;;13.40;;
27039;SDS011;14589;51.578;7.306;2022-12-04T03:30:13;32.35;;;12.77;;
27039;SDS011;14589;51.578;7.306;2022-12-04T03:37:40;33.50;;;12.85;;
27039;SDS011;14589;51.578;7.306;2022-12-04T03:42:47;33.72;;;12.93;;
27039;SDS011;14589;51.578;7.306;2022-12-04T03:45:39;39.38;;;13.75;;
27039;SDS011;14589;51.578;7.306;2022-12-04T03:48:23;34.08;;;13.60;;
27039;SDS011;14589;51.578;7.306;2022-12-04T03:50:57;36.00;;;13.38;;
27039;SDS011;14589;51.578;7.306;2022-12-04T03:53:39;41.00;;;13.57;;
27039;SDS011;14589;51.578;7.306;2022-12-04T03:58:39;32.72;;;13.13;;
27039;SDS011;14589;51.578;7.306;2022-12-04T04:01:08;33.70;;;13.35;;
27039;SDS011;14589;51.578;7.306;2022-12-04T04:03:34;31.00;;;12.15;;
27039;SDS011;14589;51.578;7.306;2022-12-04T04:06:05;39.55;;;14.05;;
27039;SDS011;14589;51.578;7.306;2022-12-04T04:08:36;34.00;;;13.88;;
27039;SDS011;14589;51.578;7.306;2022-12-04T04:13:39;32.95;;;12.98;;
27039;SDS011;14589;51.578;7.306;2022-12-04T04:16:27;30.88;;;13.02;;
27039;SDS011;14589;51.578;7.306;2022-12-04T04:19:12;33.67;;;13.50;;
27039;SDS011;14589;51.578;7.306;2022-12-04T04:21:57;35.88;;;14.55;;
27039;SDS011;14589;51.578;7.306;2022-12-04T04:24:46;35.22;;;14.30;;
27039;SDS011;14589;51.578;7.306;2022-12-04T04:27:14;33.20;;;13.45;;
27039;SDS011;14589;51.578;7.306;2022-12-04T04:29:40;37.95;;;13.70;;
27039;SDS011;14589;51.578;7.306;2022-12-04T04:32:10;33.78;;;13.40;;
27039;SDS011;14589;51.578;7.306;2022-12-04T04:39:57;33.00;;;12.43;;
27039;SDS011;14589;51.578;7.306;2022-12-04T04:53:09;33.92;;;13.25;;
27039;SDS011;14589;51.578;7.306;2022-12-04T04:55:37;35.65;;;14.07;;
27039;SDS011;14589;51.578;7.306;2022-12-04T04:58:10;35.60;;;13.25;;
27039;SDS011;14589;51.578;7.306;2022-12-04T05:00:38;32.92;;;13.52;;
27039;SDS011;14589;51.578;7.306;2022-12-04T05:03:04;32.25;;;13.77;;
27039;SDS011;14589;51.578;7.306;2022-12-04T05:05:30;32.30;;;13.63;;
27039;SDS011;14589;51.578;7.306;2022-12-04T05:07:56;36.78;;;14.52;;
27039;SDS011;14589;51.578;7.306;2022-12-04T05:10:21;33.55;;;12.75;;
27039;SDS011;14589;51.578;7.306;2022-12-04T05:12:49;34.75;;;13.75;;
27039;SDS011;14589;51.578;7.306;2022-12-04T05:15:15;29.80;;;13.07;;
27039;SDS011;14589;51.578;7.306;2022-12-04T05:17:40;32.95;;;12.88;;
27039;SDS011;14589;51.578;7.306;2022-12-04T05:20:06;34.08;;;13.95;;
27039;SDS011;14589;51.578;7.306;2022-12-04T05:22:32;36.53;;;13.82;;
27039;SDS011;14589;51.578;7.306;2022-12-04T05:24:59;34.22;;;13.15;;
27039;SDS011;14589;51.578;7.306;2022-12-04T05:27:26;31.48;;;13.20;;
27039;SDS011;14589;51.578;7.306;2022-12-04T05:29:53;33.25;;;13.00;;
27039;SDS011;14589;51.578;7.306;2022-12-04T05:32:21;28.50;;;12.02;;
27039;SDS011;14589;51.578;7.306;2022-12-04T05:34:48;34.42;;;13.93;;
27039;SDS011;14589;51.578;7.306;2022-12-04T05:37:14;33.85;;;13.15;;
27039;SDS011;14589;51.578;7.306;2022-12-04T05:39:39;32.15;;;13.18;;
27039;SDS011;14589;51.578;7.306;2022-12-04T05:42:05;30.35;;;12.65;;
27039;SDS011;14589;51.578;7.306;2022-12-04T05:44:30;36.15;;;13.45;;
27039;SDS011;14589;51.578;7.306;2022-12-04T05:46:56;25.65;;;12.18;;
27039;SDS011;14589;51.578;7.306;2022-12-04T05:49:21;34.13;;;13.75;;
27039;SDS011;14589;51.578;7.306;2022-12-04T05:51:50;29.77;;;12.50;;
27039;SDS011;14589;51.578;7.306;2022-12-04T05:54:16;27.95;;;12.02;;
27039;SDS011;14589;51.578;7.306;2022-12-04T05:56:42;30.58;;;13.00;;
27039;SDS011;14589;51.578;7.306;2022-12-04T05:59:08;34.38;;;13.07;;
27039;SDS011;14589;51.578;7.306;2022-12-04T06:01:42;31.38;;;13.05;;
27039;SDS011;14589;51.578;7.306;2022-12-04T06:04:08;28.35;;;11.98;;
27039;SDS011;14589;51.578;7.306;2022-12-04T06:06:36;28.85;;;12.52;;
27039;SDS011;14589;51.578;7.306;2022-12-04T06:09:05;31.20;;;12.52;;
27039;SDS011;14589;51.578;7.306;2022-12-04T06:11:40;26.23;;;12.23;;
27039;SDS011;14589;51.578;7.306;2022-12-04T06:14:09;31.10;;;12.48;;
27039;SDS011;14589;51.578;7.306;2022-12-04T06:16:37;30.83;;;12.75;;
27039;SDS011;14589;51.578;7.306;2022-12-04T06:19:11;28.17;;;12.23;;
27039;SDS011;14589;51.578;7.306;2022-12-04T06:21:41;28.92;;;12.80;;
27039;SDS011;14589;51.578;7.306;2022-12-04T06:24:09;29.27;;;12.35;;
27039;SDS011;14589;51.578;7.306;2022-12-04T06:26:37;32.53;;;13.95;;
27039;SDS011;14589;51.578;7.306;2022-12-04T06:29:02;26.00;;;11.95;;
27039;SDS011;14589;51.578;7.306;2022-12-04T06:31:28;30.45;;;13.13;;
27039;SDS011;14589;51.578;7.306;2022-12-04T06:33:57;32.78;;;13.82;;
27039;SDS011;14589;51.578;7.306;2022-12-04T06:36:25;28.77;;;13.27;;
27039;SDS011;14589;51.578;7.306;2022-12-04T06:39:01;30.33;;;12.75;;
27039;SDS011;14589;51.578;7.306;2022-12-04T06:41:28;31.70;;;13.35;;
27039;SDS011;14589;51.578;7.306;2022-12-04T06:43:55;29.50;;;12.73;;
27039;SDS011;14589;51.578;7.306;2022-12-04T06:46:23;30.23;;;12.48;;
27039;SDS011;14589;51.578;7.306;2022-12-04T06:49:02;29.67;;;12.35;;
27039;SDS011;14589;51.578;7.306;2022-12-04T06:51:29;26.67;;;11.75;;
27039;SDS011;14589;51.578;7.306;2022-12-04T06:56:26;29.67;;;12.93;;
27039;SDS011;14589;51.578;7.306;2022-12-04T06:58:54;30.42;;;12.07;;
27039;SDS011;14589;51.578;7.306;2022-12-04T07:01:22;28.77;;;11.40;;
27039;SDS011;14589;51.578;7.306;2022-12-04T07:03:50;27.85;;;12.43;;
27039;SDS011;14589;51.578;7.306;2022-12-04T07:06:24;29.05;;;12.25;;
27039;SDS011;14589;51.578;7.306;2022-12-04T07:08:58;26.40;;;11.52;;
27039;SDS011;14589;51.578;7.306;2022-12-04T07:11:28;27.73;;;11.45;;
27039;SDS011;14589;51.578;7.306;2022-12-04T07:13:55;26.85;;;11.75;;
27039;SDS011;14589;51.578;7.306;2022-12-04T07:16:25;30.20;;;12.63;;
27039;SDS011;14589;51.578;7.306;2022-12-04T07:18:50;29.85;;;12.40;;
27039;SDS011;14589;51.578;7.306;2022-12-04T07:21:22;32.25;;;13.00;;
27039;SDS011;14589;51.578;7.306;2022-12-04T07:23:49;26.30;;;11.85;;
27039;SDS011;14589;51.578;7.306;2022-12-04T07:26:21;26.95;;;12.13;;
27039;SDS011;14589;51.578;7.306;2022-12-04T07:28:54;27.88;;;11.55;;
27039;SDS011;14589;51.578;7.306;2022-12-04T07:31:27;27.48;;;11.13;;
27039;SDS011;14589;51.578;7.306;2022-12-04T07:34:04;25.02;;;11.60;;
27039;SDS011;14589;51.578;7.306;2022-12-04T07:36:29;28.85;;;12.05;;
27039;SDS011;14589;51.578;7.306;2022-12-04T07:38:56;27.25;;;11.05;;
27039;SDS011;14589;51.578;7.306;2022-12-04T07:41:21;24.60;;;10.85;;
27039;SDS011;14589;51.578;7.306;2022-12-04T07:43:47;25.88;;;11.88;;
27039;SDS011;14589;51.578;7.306;2022-12-04T07:46:16;26.67;;;11.68;;
27039;SDS011;14589;51.578;7.306;2022-12-04T07:48:47;31.15;;;12.93;;
27039;SDS011;14589;51.578;7.306;2022-12-04T07:51:19;28.30;;;11.52;;
27039;SDS011;14589;51.578;7.306;2022-12-04T07:53:48;28.20;;;10.70;;
27039;SDS011;14589;51.578;7.306;2022-12-04T07:56:17;29.08;;;12.35;;
27039;SDS011;14589;51.578;7.306;2022-12-04T07:58:43;27.65;;;12.05;;
27039;SDS011;14589;51.578;7.306;2022-12-04T08:01:13;27.42;;;12.80;;
27039;SDS011;14589;51.578;7.306;2022-12-04T08:03:44;28.73;;;11.07;;
27039;SDS011;14589;51.578;7.306;2022-12-04T08:06:10;25.98;;;11.43;;
27039;SDS011;14589;51.578;7.306;2022-12-04T08:08:36;30.55;;;12.32;;
27039;SDS011;14589;51.578;7.306;2022-12-04T08:11:08;27.23;;;11.30;;
27039;SDS011;14589;51.578;7.306;2022-12-04T08:16:06;27.88;;;11.93;;
27039;SDS011;14589;51.578;7.306;2022-12-04T08:18:33;24.92;;;10.85;;
27039;SDS011;14589;51.578;7.306;2022-12-04T08:21:12;29.23;;;12.50;;
27039;SDS011;14589;51.578;7.306;2022-12-04T08:23:38;26.50;;;11.38;;
27039;SDS011;14589;51.578;7.306;2022-12-04T08:26:05;31.27;;;13.32;;
27039;SDS011;14589;51.578;7.306;2022-12-04T08:28:31;25.83;;;11.88;;
27039;SDS011;14589;51.578;7.306;2022-12-04T08:31:03;27.20;;;10.68;;
27039;SDS011;14589;51.578;7.306;2022-12-04T08:33:32;27.92;;;11.95;;
27039;SDS011;14589;51.578;7.306;2022-12-04T08:36:07;32.42;;;12.68;;
27039;SDS011;14589;51.578;7.306;2022-12-04T08:38:33;31.63;;;12.35;;
27039;SDS011;14589;51.578;7.306;2022-12-04T08:41:00;33.83;;;14.32;;
27039;SDS011;14589;51.578;7.306;2022-12-04T08:43:26;29.27;;;12.85;;
27039;SDS011;14589;51.578;7.306;2022-12-04T08:45:55;32.40;;;12.77;;
27039;SDS011;14589;51.578;7.306;2022-12-04T08:48:22;30.13;;;12.98;;
27039;SDS011;14589;51.578;7.306;2022-12-04T08:50:54;29.55;;;13.18;;
27039;SDS011;14589;51.578;7.306;2022-12-04T08:53:20;30.73;;;12.80;;
27039;SDS011;14589;51.578;7.306;2022-12-04T08:55:54;28.02;;;12.23;;
27039;SDS011;14589;51.578;7.306;2022-12-04T08:58:27;33.83;;;13.57;;
27039;SDS011;14589;51.578;7.306;2022-12-04T09:00:52;31.00;;;13.13;;
27039;SDS011;14589;51.578;7.306;2022-12-04T09:03:19;36.40;;;14.27;;
27039;SDS011;14589;51.578;7.306;2022-12-04T09:05:46;31.95;;;13.27;;
27039;SDS011;14589;51.578;7.306;2022-12-04T09:08:12;32.63;;;13.15;;
27039;SDS011;14589;51.578;7.306;2022-12-04T09:10:38;29.98;;;14.13;;
27039;SDS011;14589;51.578;7.306;2022-12-04T09:13:04;32.63;;;13.27;;
27039;SDS011;14589;51.578;7.306;2022-12-04T09:15:30;29.83;;;12.98;;
27039;SDS011;14589;51.578;7.306;2022-12-04T09:17:55;35.75;;;14.18;;
27039;SDS011;14589;51.578;7.306;2022-12-04T09:20:21;34.85;;;13.63;;
27039;SDS011;14589;51.578;7.306;2022-12-04T09:22:46;31.90;;;13.43;;
27039;SDS011;14589;51.578;7.306;2022-12-04T09:25:13;33.20;;;12.45;;
27039;SDS011;14589;51.578;7.306;2022-12-04T09:27:38;30.55;;;13.18;;
27039;SDS011;14589;51.578;7.306;2022-12-04T09:30:07;28.10;;;12.30;;
27039;SDS011;14589;51.578;7.306;2022-12-04T09:32:36;30.83;;;12.82;;
27039;SDS011;14589;51.578;7.306;2022-12-04T09:35:04;28.95;;;12.85;;
27039;SDS011;14589;51.578;7.306;2022-12-04T09:37:38;31.70;;;13.02;;
27039;SDS011;14589;51.578;7.306;2022-12-04T09:40:05;27.80;;;12.70;;
27039;SDS011;14589;51.578;7.306;2022-12-04T09:42:34;30.38;;;12.68;;
27039;SDS011;14589;51.578;7.306;2022-12-04T09:47:39;29.85;;;12.32;;
27039;SDS011;14589;51.578;7.306;2022-12-04T09:52:49;34.80;;;13.57;;
27039;SDS011;14589;51.578;7.306;2022-12-04T09:55:22;37.05;;;13.30;;
27039;SDS011;14589;51.578;7.306;2022-12-04T09:57:53;27.17;;;11.80;;
27039;SDS011;14589;51.578;7.306;2022-12-04T10:00:20;33.78;;;12.52;;
27039;SDS011;14589;51.578;7.306;2022-12-04T10:03:09;32.22;;;13.23;;
27039;SDS011;14589;51.578;7.306;2022-12-04T10:08:37;28.38;;;12.65;;
27039;SDS011;14589;51.578;7.306;2022-12-04T10:11:16;29.50;;;12.13;;
27039;SDS011;14589;51.578;7.306;2022-12-04T10:21:59;32.53;;;12.88;;
27039;SDS011;14589;51.578;7.306;2022-12-04T10:27:05;30.05;;;13.68;;
27039;SDS011;14589;51.578;7.306;2022-12-04T10:29:38;30.20;;;12.77;;
27039;SDS011;14589;51.578;7.306;2022-12-04T10:32:14;33.30;;;12.30;;
27039;SDS011;14589;51.578;7.306;2022-12-04T10:34:41;32.78;;;12.82;;
27039;SDS011;14589;51.578;7.306;2022-12-04T10:37:14;30.90;;;12.68;;
27039;SDS011;14589;51.578;7.306;2022-12-04T10:39:48;29.45;;;12.88;;
27039;SDS011;14589;51.578;7.306;2022-12-04T10:45:19;26.67;;;12.30;;
27039;SDS011;14589;51.578;7.306;2022-12-04T10:47:49;31.88;;;13.55;;
27039;SDS011;14589;51.578;7.306;2022-12-04T10:50:16;30.40;;;13.13;;
27039;SDS011;14589;51.578;7.306;2022-12-04T10:52:43;29.05;;;13.80;;
27039;SDS011;14589;51.578;7.306;2022-12-04T10:55:09;28.13;;;12.68;;
27039;SDS011;14589;51.578;7.306;2022-12-04T10:57:36;28.23;;;12.55;;
27039;SDS011;14589;51.578;7.306;2022-12-04T11:00:26;28.23;;;11.57;;
27039;SDS011;14589;51.578;7.306;2022-12-04T11:05:37;28.95;;;11.50;;
27039;SDS011;14589;51.578;7.306;2022-12-04T11:08:25;28.05;;;12.38;;
27039;SDS011;14589;51.578;7.306;2022-12-04T11:11:05;31.25;;;13.35;;
27039;SDS011;14589;51.578;7.306;2022-12-04T11:13:38;33.63;;;12.85;;
27039;SDS011;14589;51.578;7.306;2022-12-04T11:16:24;25.98;;;11.82;;
27039;SDS011;14589;51.578;7.306;2022-12-04T11:18:57;29.55;;;12.80;;
27039;SDS011;14589;51.578;7.306;2022-12-04T11:21:25;29.58;;;12.32;;
27039;SDS011;14589;51.578;7.306;2022-12-04T11:23:52;26.20;;;12.05;;
27039;SDS011;14589;51.578;7.306;2022-12-04T11:26:31;23.75;;;11.95;;
27039;SDS011;14589;51.578;7.306;2022-12-04T11:28:58;28.05;;;13.23;;
27039;SDS011;14589;51.578;7.306;2022-12-04T11:31:29;25.95;;;12.43;;
27039;SDS011;14589;51.578;7.306;2022-12-04T11:34:03;25.75;;;11.70;;
27039;SDS011;14589;51.578;7.306;2022-12-04T11:36:38;29.48;;;11.60;;
27039;SDS011;14589;51.578;7.306;2022-12-04T11:39:12;28.88;;;11.90;;
27039;SDS011;14589;51.578;7.306;2022-12-04T11:41:47;28.52;;;12.52;;
27039;SDS011;14589;51.578;7.306;2022-12-04T11:44:33;25.58;;;11.07;;
27039;SDS011;14589;51.578;7.306;2022-12-04T11:47:01;28.27;;;12.50;;
27039;SDS011;14589;51.578;7.306;2022-12-04T11:49:28;26.23;;;11.88;;
27039;SDS011;14589;51.578;7.306;2022-12-04T12:00:32;20.45;;;9.77;;
27039;SDS011;14589;51.578;7.306;2022-12-04T12:03:19;20.20;;;9.48;;
27039;SDS011;14589;51.578;7.306;2022-12-04T12:08:20;21.42;;;10.02;;
27039;SDS011;14589;51.578;7.306;2022-12-04T12:21:39;22.77;;;11.18;;
27039;SDS011;14589;51.578;7.306;2022-12-04T12:30:02;21.85;;;10.75;;
27039;SDS011;14589;51.578;7.306;2022-12-04T12:32:37;20.83;;;10.32;;
27039;SDS011;14589;51.578;7.306;2022-12-04T12:35:17;21.55;;;10.20;;
27039;SDS011;14589;51.578;7.306;2022-12-04T12:37:50;21.00;;;9.50;;
27039;SDS011;14589;51.578;7.306;2022-12-04T12:43:02;18.45;;;10.07;;
27039;SDS011;14589;51.578;7.306;2022-12-04T12:45:37;22.80;;;10.40;;
27039;SDS011;14589;51.578;7.306;2022-12-04T12:50:58;18.30;;;9.00;;
27039;SDS011;14589;51.578;7.306;2022-12-04T12:53:29;19.77;;;9.57;;
27039;SDS011;14589;51.578;7.306;2022-12-04T12:55:59;18.00;;;8.85;;
27039;SDS011;14589;51.578;7.306;2022-12-04T12:58:37;24.08;;;9.90;;
27039;SDS011;14589;51.578;7.306;2022-12-04T13:01:15;19.45;;;9.55;;
27039;SDS011;14589;51.578;7.306;2022-12-04T13:03:57;17.20;;;9.20;;
27039;SDS011;14589;51.578;7.306;2022-12-04T13:06:30;18.67;;;9.00;;
27039;SDS011;14589;51.578;7.306;2022-12-04T13:11:38;18.98;;;8.65;;
27039;SDS011;14589;51.578;7.306;2022-12-04T13:14:04;17.40;;;8.40;;
27039;SDS011;14589;51.578;7.306;2022-12-04T13:16:43;16.55;;;8.65;;
27039;SDS011;14589;51.578;7.306;2022-12-04T13:19:19;18.50;;;7.95;;
27039;SDS011;14589;51.578;7.306;2022-12-04T13:28:03;16.42;;;8.35;;
27039;SDS011;14589;51.578;7.306;2022-12-04T13:45:28;16.63;;;9.00;;
27039;SDS011;14589;51.578;7.306;2022-12-04T13:47:55;17.92;;;8.80;;
27039;SDS011;14589;51.578;7.306;2022-12-04T13:50:33;17.35;;;8.60;;
27039;SDS011;14589;51.578;7.306;2022-12-04T13:53:04;18.27;;;8.60;;
27039;SDS011;14589;51.578;7.306;2022-12-04T13:55:39;18.80;;;8.73;;
27039;SDS011;14589;51.578;7.306;2022-12-04T14:00:39;18.48;;;9.15;;
27039;SDS011;14589;51.578;7.306;2022-12-04T14:05:59;20.60;;;8.75;;
27039;SDS011;14589;51.578;7.306;2022-12-04T14:08:44;22.15;;;10.00;;
27039;SDS011;14589;51.578;7.306;2022-12-04T14:11:14;23.88;;;8.68;;
27039;SDS011;14589;51.578;7.306;2022-12-04T14:16:16;20.95;;;9.48;;
27039;SDS011;14589;51.578;7.306;2022-12-04T14:18:54;20.30;;;10.25;;
27039;SDS011;14589;51.578;7.306;2022-12-04T14:21:21;20.33;;;9.60;;
27039;SDS011;14589;51.578;7.306;2022-12-04T14:23:49;22.63;;;10.32;;
27039;SDS011;14589;51.578;7.306;2022-12-04T14:26:26;20.38;;;10.05;;
27039;SDS011;14589;51.578;7.306;2022-12-04T14:32:13;21.45;;;10.38;;
27039;SDS011;14589;51.578;7.306;2022-12-04T14:34:44;23.73;;;10.35;;
27039;SDS011;14589;51.578;7.306;2022-12-04T14:37:16;24.25;;;10.48;;
27039;SDS011;14589;51.578;7.306;2022-12-04T14:39:45;22.92;;;9.85;;
27039;SDS011;14589;51.578;7.306;2022-12-04T14:42:13;22.75;;;10.65;;
27039;SDS011;14589;51.578;7.306;2022-12-04T14:44:39;24.35;;;10.43;;
27039;SDS011;14589;51.578;7.306;2022-12-04T14:47:08;24.02;;;11.02;;
27039;SDS011;14589;51.578;7.306;2022-12-04T14:52:44;23.63;;;10.60;;
27039;SDS011;14589;51.578;7.306;2022-12-04T14:58:00;25.83;;;10.45;;
27039;SDS011;14589;51.578;7.306;2022-12-04T15:00:49;29.23;;;11.70;;
27039;SDS011;14589;51.578;7.306;2022-12-04T15:03:18;33.72;;;13.20;;
27039;SDS011;14589;51.578;7.306;2022-12-04T15:05:44;35.92;;;14.70;;
27039;SDS011;14589;51.578;7.306;2022-12-04T15:08:15;31.17;;;13.73;;
27039;SDS011;14589;51.578;7.306;2022-12-04T15:10:47;32.10;;;14.23;;
27039;SDS011;14589;51.578;7.306;2022-12-04T15:13:33;36.47;;;14.40;;
27039;SDS011;14589;51.578;7.306;2022-12-04T15:18:51;38.40;;;16.08;;
27039;SDS011;14589;51.578;7.306;2022-12-04T15:21:20;34.00;;;14.43;;
27039;SDS011;14589;51.578;7.306;2022-12-04T15:23:47;37.97;;;16.52;;
27039;SDS011;14589;51.578;7.306;2022-12-04T15:26:15;36.58;;;15.57;;
27039;SDS011;14589;51.578;7.306;2022-12-04T15:28:44;39.83;;;15.25;;
27039;SDS011;14589;51.578;7.306;2022-12-04T15:31:16;35.85;;;15.80;;
27039;SDS011;14589;51.578;7.306;2022-12-04T15:39:11;37.90;;;15.50;;
27039;SDS011;14589;51.578;7.306;2022-12-04T15:41:39;40.97;;;16.08;;
27039;SDS011;14589;51.578;7.306;2022-12-04T15:47:04;36.47;;;14.95;;
27039;SDS011;14589;51.578;7.306;2022-12-04T15:49:42;35.97;;;15.18;;
27039;SDS011;14589;51.578;7.306;2022-12-04T15:52:22;39.88;;;15.75;;
27039;SDS011;14589;51.578;7.306;2022-12-04T15:54:56;32.50;;;15.35;;
27039;SDS011;14589;51.578;7.306;2022-12-04T15:59:58;34.40;;;14.65;;
27039;SDS011;14589;51.578;7.306;2022-12-04T16:05:48;33.72;;;14.25;;
27039;SDS011;14589;51.578;7.306;2022-12-04T16:13:44;39.33;;;15.48;;
27039;SDS011;14589;51.578;7.306;2022-12-04T16:16:16;36.72;;;15.10;;
27039;SDS011;14589;51.578;7.306;2022-12-04T16:18:43;36.25;;;15.68;;
27039;SDS011;14589;51.578;7.306;2022-12-04T16:21:17;37.67;;;15.38;;
27039;SDS011;14589;51.578;7.306;2022-12-04T16:23:46;41.60;;;17.05;;
27039;SDS011;14589;51.578;7.306;2022-12-04T16:26:15;36.20;;;14.95;;
27039;SDS011;14589;51.578;7.306;2022-12-04T16:28:42;38.55;;;15.23;;
27039;SDS011;14589;51.578;7.306;2022-12-04T16:31:13;42.50;;;16.98;;
27039;SDS011;14589;51.578;7.306;2022-12-04T16:33:41;36.72;;;15.02;;
27039;SDS011;14589;51.578;7.306;2022-12-04T16:36:08;42.10;;;16.20;;
27039;SDS011;14589;51.578;7.306;2022-12-04T16:38:40;38.55;;;15.65;;
27039;SDS011;14589;51.578;7.306;2022-12-04T16:41:05;40.20;;;16.55;;
27039;SDS011;14589;51.578;7.306;2022-12-04T16:43:38;40.03;;;16.55;;
27039;SDS011;14589;51.578;7.306;2022-12-04T16:46:03;35.53;;;16.48;;
27039;SDS011;14589;51.578;7.306;2022-12-04T16:48:41;43.15;;;16.15;;
27039;SDS011;14589;51.578;7.306;2022-12-04T16:53:58;38.30;;;16.00;;
27039;SDS011;14589;51.578;7.306;2022-12-04T16:56:25;46.17;;;16.25;;
27039;SDS011;14589;51.578;7.306;2022-12-04T16:58:50;41.38;;;16.92;;
27039;SDS011;14589;51.578;7.306;2022-12-04T17:06:34;40.47;;;16.52;;
27039;SDS011;14589;51.578;7.306;2022-12-04T17:09:02;43.60;;;16.88;;
27039;SDS011;14589;51.578;7.306;2022-12-04T17:11:27;42.70;;;16.83;;
27039;SDS011;14589;51.578;7.306;2022-12-04T17:14:08;50.03;;;18.23;;
27039;SDS011;14589;51.578;7.306;2022-12-04T17:16:38;48.95;;;18.20;;
27039;SDS011;14589;51.578;7.306;2022-12-04T17:19:06;47.60;;;17.58;;
27039;SDS011;14589;51.578;7.306;2022-12-04T17:21:35;47.88;;;18.90;;
27039;SDS011;14589;51.578;7.306;2022-12-04T17:24:02;43.85;;;17.50;;
27039;SDS011;14589;51.578;7.306;2022-12-04T17:26:29;48.70;;;19.63;;
27039;SDS011;14589;51.578;7.306;2022-12-04T17:28:59;48.60;;;18.98;;
27039;SDS011;14589;51.578;7.306;2022-12-04T17:31:29;49.15;;;19.05;;
27039;SDS011;14589;51.578;7.306;2022-12-04T17:33:57;51.47;;;19.98;;
27039;SDS011;14589;51.578;7.306;2022-12-04T17:36:39;51.85;;;20.00;;
27039;SDS011;14589;51.578;7.306;2022-12-04T17:39:07;53.17;;;20.75;;
27039;SDS011;14589;51.578;7.306;2022-12-04T17:41:37;52.22;;;19.83;;
27039;SDS011;14589;51.578;7.306;2022-12-04T17:44:05;55.10;;;20.38;;
27039;SDS011;14589;51.578;7.306;2022-12-04T17:46:30;55.13;;;20.45;;